createdAt,value
2019-06-27T00:00:16.135Z,96.32
2019-06-27T00:01:16.124Z,96.61
2019-06-27T00:02:16.099Z,96.51
2019-06-27T00:03:16.083Z,96.22
2019-06-27T00:04:16.066Z,96.13
2019-06-27T00:05:16.054Z,96.51
2019-06-27T00:06:16.030Z,96.61
2019-06-27T00:07:16.018Z,96.22
2019-06-27T00:08:15.996Z,96.80
2019-06-27T00:09:15.987Z,96.03
2019-06-27T00:10:15.968Z,96.13
2019-06-27T00:11:15.944Z,96.13
2019-06-27T00:12:15.929Z,96.51
2019-06-27T00:13:15.908Z,96.70
2019-06-27T00:14:15.894Z,96.42
2019-06-27T00:15:15.884Z,96.42
2019-06-27T00:16:15.863Z,96.32
2019-06-27T00:17:15.841Z,96.42
2019-06-27T00:18:15.835Z,97.18
2019-06-27T00:19:15.805Z,97.38
2019-06-27T00:20:15.801Z,97.38
2019-06-27T00:21:15.778Z,96.61
2019-06-27T00:22:15.753Z,96.32
2019-06-27T00:23:15.742Z,96.80
2019-06-27T00:24:15.719Z,96.99
2019-06-27T00:25:15.702Z,96.80
2019-06-27T00:26:15.688Z,96.42
2019-06-27T00:27:15.665Z,96.32
2019-06-27T00:28:15.648Z,96.13
2019-06-27T00:29:15.640Z,96.32
2019-06-27T00:30:15.636Z,96.61
2019-06-27T00:31:15.604Z,96.32
2019-06-27T00:32:15.587Z,96.80
2019-06-27T00:33:15.564Z,96.61
2019-06-27T00:34:15.544Z,96.42
2019-06-27T00:35:15.528Z,96.42
2019-06-27T00:36:15.507Z,96.80
2019-06-27T00:37:15.494Z,95.75
2019-06-27T00:38:15.476Z,95.84
2019-06-27T00:39:15.465Z,95.75
2019-06-27T00:40:15.439Z,95.94
2019-06-27T00:41:15.428Z,95.56
2019-06-27T00:42:15.407Z,95.65
2019-06-27T00:43:15.385Z,96.22
2019-06-27T00:44:15.377Z,95.65
2019-06-27T00:45:15.422Z,95.84
2019-06-27T00:46:15.335Z,95.70
2019-06-27T00:47:15.315Z,95.41
2019-06-27T00:48:15.299Z,95.46
2019-06-27T00:49:15.283Z,95.41
2019-06-27T00:50:15.264Z,95.12
2019-06-27T00:51:15.255Z,95.36
2019-06-27T00:52:15.239Z,95.03
2019-06-27T00:53:15.214Z,94.69
2019-06-27T00:54:15.198Z,95.84
2019-06-27T00:55:15.177Z,95.46
2019-06-27T00:56:15.162Z,95.56
2019-06-27T00:57:15.157Z,95.84
2019-06-27T00:58:15.126Z,95.46
2019-06-27T00:59:15.113Z,95.07
2019-06-27T01:00:15.099Z,94.89
2019-06-27T01:01:15.076Z,95.17
2019-06-27T01:02:15.057Z,95.46
2019-06-27T01:03:15.042Z,95.17
2019-06-27T01:04:15.030Z,94.98
2019-06-27T01:05:15.208Z,95.26
2019-06-27T01:06:15.004Z,94.79
2019-06-27T01:07:14.970Z,95.26
2019-06-27T01:08:14.954Z,95.36
2019-06-27T01:09:14.939Z,94.89
2019-06-27T01:10:14.920Z,95.89
2019-06-27T01:11:14.902Z,95.70
2019-06-27T01:12:14.883Z,96.08
2019-06-27T01:13:14.869Z,95.98
2019-06-27T01:14:14.866Z,96.08
2019-06-27T01:15:14.831Z,95.51
2019-06-27T01:16:14.836Z,96.37
2019-06-27T01:17:14.818Z,96.32
2019-06-27T01:18:14.783Z,96.51
2019-06-27T01:19:14.760Z,95.75
2019-06-27T01:20:14.745Z,95.56
2019-06-27T01:21:14.734Z,95.75
2019-06-27T01:22:14.709Z,95.56
2019-06-27T01:23:14.711Z,95.26
2019-06-27T01:24:14.678Z,95.07
2019-06-27T01:25:14.710Z,94.98
2019-06-27T01:26:14.656Z,95.07
2019-06-27T01:27:29.039Z,95.17
2019-06-27T01:28:14.605Z,95.26
2019-06-27T01:29:14.587Z,95.70
2019-06-27T01:30:14.573Z,95.46
2019-06-27T01:31:14.552Z,94.79
2019-06-27T01:32:14.534Z,95.12
2019-06-27T01:33:14.527Z,95.41
2019-06-27T01:34:14.506Z,95.79
2019-06-27T01:35:14.652Z,95.70
2019-06-27T01:36:14.467Z,95.70
2019-06-27T01:37:14.453Z,95.12
2019-06-27T01:38:14.432Z,95.17
2019-06-27T01:39:14.412Z,94.98
2019-06-27T01:40:14.405Z,95.07
2019-06-27T01:41:14.377Z,94.69
2019-06-27T01:42:14.369Z,95.07
2019-06-27T01:43:14.339Z,94.98
2019-06-27T01:44:14.320Z,95.07
2019-06-27T01:45:14.314Z,95.41
2019-06-27T01:46:14.290Z,95.31
2019-06-27T01:47:14.269Z,95.07
2019-06-27T01:48:14.251Z,94.45
2019-06-27T01:49:14.240Z,95.26
2019-06-27T01:50:14.224Z,94.93
2019-06-27T01:51:14.198Z,95.22
2019-06-27T01:52:14.178Z,95.22
2019-06-27T01:53:14.162Z,95.41
2019-06-27T01:54:14.145Z,95.03
2019-06-27T01:55:14.128Z,95.41
2019-06-27T01:56:14.109Z,95.12
2019-06-27T01:57:14.092Z,94.84
2019-06-27T01:58:14.074Z,94.74
2019-06-27T01:59:14.056Z,95.22
2019-06-27T02:00:14.042Z,95.03
2019-06-27T02:01:14.023Z,95.03
2019-06-27T02:02:14.004Z,95.12
2019-06-27T02:03:14.021Z,95.03
2019-06-27T02:04:13.967Z,94.55
2019-06-27T02:05:13.951Z,94.64
2019-06-27T02:06:13.943Z,94.84
2019-06-27T02:07:13.915Z,95.12
2019-06-27T02:08:13.899Z,95.12
2019-06-27T02:09:13.899Z,95.12
2019-06-27T02:10:13.868Z,94.84
2019-06-27T02:11:13.847Z,94.64
2019-06-27T02:12:13.827Z,94.45
2019-06-27T02:13:13.808Z,94.84
2019-06-27T02:14:13.800Z,95.03
2019-06-27T02:15:13.782Z,95.51
2019-06-27T02:16:13.763Z,95.60
2019-06-27T02:17:13.737Z,95.60
2019-06-27T02:18:13.722Z,95.12
2019-06-27T02:19:13.702Z,95.51
2019-06-27T02:20:13.690Z,95.79
2019-06-27T02:21:13.670Z,95.70
2019-06-27T02:22:13.648Z,95.51
2019-06-27T02:23:15.881Z,95.70
2019-06-27T02:24:13.628Z,96.18
2019-06-27T02:25:13.595Z,95.70
2019-06-27T02:26:13.578Z,95.51
2019-06-27T02:27:13.560Z,95.51
2019-06-27T02:28:13.543Z,95.51
2019-06-27T02:29:13.525Z,95.12
2019-06-27T02:30:13.511Z,94.74
2019-06-27T02:31:13.490Z,95.03
2019-06-27T02:32:13.471Z,95.31
2019-06-27T02:33:13.466Z,95.03
2019-06-27T02:34:13.440Z,95.41
2019-06-27T02:35:13.419Z,95.31
2019-06-27T02:36:13.401Z,95.41
2019-06-27T02:37:13.395Z,95.03
2019-06-27T02:38:13.365Z,95.12
2019-06-27T02:39:13.362Z,95.79
2019-06-27T02:40:13.329Z,94.93
2019-06-27T02:41:13.315Z,94.93
2019-06-27T02:42:13.295Z,95.03
2019-06-27T02:43:13.282Z,95.51
2019-06-27T02:44:13.260Z,94.45
2019-06-27T02:45:13.242Z,94.26
2019-06-27T02:46:13.228Z,94.35
2019-06-27T02:47:13.202Z,94.35
2019-06-27T02:48:13.187Z,94.74
2019-06-27T02:49:13.171Z,94.64
2019-06-27T02:50:13.154Z,94.17
2019-06-27T02:51:13.147Z,94.26
2019-06-27T02:52:13.116Z,94.45
2019-06-27T02:53:13.105Z,94.35
2019-06-27T02:54:13.081Z,94.64
2019-06-27T02:55:13.061Z,94.64
2019-06-27T02:56:13.048Z,94.35
2019-06-27T02:57:13.025Z,94.74
2019-06-27T02:58:29.564Z,95.22
2019-06-27T02:59:12.990Z,95.12
2019-06-27T03:00:12.979Z,94.84
2019-06-27T03:01:12.958Z,95.31
2019-06-27T03:02:12.939Z,95.03
2019-06-27T03:03:12.924Z,95.12
2019-06-27T03:04:12.901Z,94.55
2019-06-27T03:05:12.901Z,94.07
2019-06-27T03:06:12.870Z,94.45
2019-06-27T03:07:12.856Z,94.74
2019-06-27T03:08:12.832Z,94.26
2019-06-27T03:09:12.819Z,94.35
2019-06-27T03:10:12.803Z,95.12
2019-06-27T03:11:12.796Z,95.03
2019-06-27T03:12:12.762Z,95.22
2019-06-27T03:13:12.744Z,94.93
2019-06-27T03:14:12.727Z,95.12
2019-06-27T03:15:12.711Z,94.45
2019-06-27T03:16:12.690Z,94.45
2019-06-27T03:17:12.674Z,94.74
2019-06-27T03:18:12.655Z,94.55
2019-06-27T03:19:12.639Z,94.64
2019-06-27T03:20:12.618Z,94.26
2019-06-27T03:21:12.603Z,94.26
2019-06-27T03:22:12.583Z,94.35
2019-06-27T03:23:12.564Z,93.78
2019-06-27T03:24:12.603Z,93.59
2019-06-27T03:25:12.528Z,93.59
2019-06-27T03:26:12.518Z,93.78
2019-06-27T03:27:12.512Z,93.40
2019-06-27T03:28:12.476Z,93.40
2019-06-27T03:29:12.462Z,93.69
2019-06-27T03:30:12.481Z,93.40
2019-06-27T03:31:12.465Z,93.59
2019-06-27T03:32:12.512Z,93.78
2019-06-27T03:33:12.402Z,93.78
2019-06-27T03:34:12.556Z,93.59
2019-06-27T03:35:12.409Z,93.02
2019-06-27T03:36:12.334Z,93.21
2019-06-27T03:37:12.315Z,93.30
2019-06-27T03:38:12.306Z,93.69
2019-06-27T03:39:12.286Z,93.59
2019-06-27T03:40:12.284Z,93.69
2019-06-27T03:41:12.251Z,93.02
2019-06-27T03:42:12.289Z,93.59
2019-06-27T03:43:12.212Z,93.40
2019-06-27T03:44:12.198Z,93.49
2019-06-27T03:45:15.922Z,92.92
2019-06-27T03:46:12.195Z,93.78
2019-06-27T03:47:12.141Z,93.78
2019-06-27T03:48:12.128Z,93.02
2019-06-27T03:49:12.117Z,93.21
2019-06-27T03:50:12.088Z,93.64
2019-06-27T03:51:12.074Z,93.59
2019-06-27T03:52:12.054Z,93.26
2019-06-27T03:53:12.036Z,93.45
2019-06-27T03:54:12.025Z,93.26
2019-06-27T03:55:12.019Z,92.97
2019-06-27T03:56:12.023Z,93.26
2019-06-27T03:57:11.962Z,93.35
2019-06-27T03:58:11.957Z,93.64
2019-06-27T03:59:13.583Z,92.82
2019-06-27T04:00:11.927Z,93.64
2019-06-27T04:01:11.892Z,93.64
2019-06-27T04:02:11.872Z,93.35
2019-06-27T04:03:11.875Z,93.54
2019-06-27T04:04:11.836Z,93.49
2019-06-27T04:05:11.818Z,93.45
2019-06-27T04:06:11.799Z,93.78
2019-06-27T04:07:11.784Z,93.07
2019-06-27T04:08:11.780Z,93.02
2019-06-27T04:09:11.751Z,93.30
2019-06-27T04:10:16.813Z,93.11
2019-06-27T04:11:11.718Z,93.21
2019-06-27T04:12:11.693Z,93.21
2019-06-27T04:13:11.684Z,93.21
2019-06-27T04:14:11.659Z,93.02
2019-06-27T04:15:11.648Z,93.11
2019-06-27T04:16:11.633Z,93.40
2019-06-27T04:17:11.615Z,93.49
2019-06-27T04:18:11.600Z,92.92
2019-06-27T04:19:11.569Z,93.69
2019-06-27T04:20:11.552Z,93.21
2019-06-27T04:21:11.535Z,92.82
2019-06-27T04:22:11.530Z,93.21
2019-06-27T04:23:11.500Z,93.45
2019-06-27T04:24:11.485Z,93.64
2019-06-27T04:25:11.462Z,93.83
2019-06-27T04:26:11.450Z,93.26
2019-06-27T04:27:11.442Z,93.64
2019-06-27T04:28:11.409Z,93.45
2019-06-27T04:29:31.484Z,92.97
2019-06-27T04:30:11.388Z,93.45
2019-06-27T04:31:11.358Z,93.54
2019-06-27T04:32:11.339Z,93.83
2019-06-27T04:33:11.320Z,94.40
2019-06-27T04:34:11.312Z,93.83
2019-06-27T04:35:11.283Z,94.31
2019-06-27T04:36:11.266Z,93.83
2019-06-27T04:37:11.261Z,94.12
2019-06-27T04:38:11.231Z,93.74
2019-06-27T04:39:11.216Z,93.59
2019-06-27T04:40:11.192Z,93.30
2019-06-27T04:41:11.179Z,93.16
2019-06-27T04:42:11.163Z,93.07
2019-06-27T04:43:11.140Z,93.21
2019-06-27T04:44:11.121Z,93.45
2019-06-27T04:45:11.122Z,92.97
2019-06-27T04:46:11.086Z,93.07
2019-06-27T04:47:11.069Z,92.49
2019-06-27T04:48:11.055Z,93.07
2019-06-27T04:49:13.368Z,92.87
2019-06-27T04:50:11.015Z,92.30
2019-06-27T04:51:10.996Z,92.40
2019-06-27T04:52:10.979Z,93.16
2019-06-27T04:53:10.961Z,92.01
2019-06-27T04:54:10.945Z,92.68
2019-06-27T04:55:10.925Z,91.44
2019-06-27T04:56:10.928Z,92.21
2019-06-27T04:57:10.890Z,92.30
2019-06-27T04:58:10.879Z,92.11
2019-06-27T04:59:10.852Z,91.92
2019-06-27T05:00:10.835Z,91.92
2019-06-27T05:01:10.819Z,91.82
2019-06-27T05:02:10.800Z,91.53
2019-06-27T05:03:10.783Z,92.01
2019-06-27T05:04:10.767Z,91.82
2019-06-27T05:05:10.748Z,91.92
2019-06-27T05:06:10.739Z,92.01
2019-06-27T05:07:10.714Z,91.25
2019-06-27T05:08:14.250Z,91.92
2019-06-27T05:09:10.708Z,91.92
2019-06-27T05:10:10.666Z,92.40
2019-06-27T05:11:10.641Z,92.11
2019-06-27T05:12:10.619Z,91.53
2019-06-27T05:13:10.608Z,91.63
2019-06-27T05:14:10.585Z,92.35
2019-06-27T05:15:10.564Z,91.72
2019-06-27T05:16:10.551Z,92.21
2019-06-27T05:17:10.530Z,91.53
2019-06-27T05:18:10.512Z,91.20
2019-06-27T05:19:10.493Z,91.53
2019-06-27T05:20:10.476Z,91.05
2019-06-27T05:21:10.457Z,91.44
2019-06-27T05:22:10.438Z,90.96
2019-06-27T05:23:10.419Z,90.09
2019-06-27T05:24:10.403Z,89.52
2019-06-27T05:25:10.384Z,89.43
2019-06-27T05:26:10.366Z,89.00
2019-06-27T05:27:10.360Z,89.58
2019-06-27T05:28:10.330Z,90.15
2019-06-27T05:29:10.318Z,89.95
2019-06-27T05:30:10.736Z,89.58
2019-06-27T05:31:10.276Z,89.38
2019-06-27T05:32:10.264Z,89.19
2019-06-27T05:33:10.243Z,89.76
2019-06-27T05:34:10.221Z,90.15
2019-06-27T05:35:10.203Z,88.71
2019-06-27T05:36:10.185Z,88.62
2019-06-27T05:37:10.165Z,89.23
2019-06-27T05:38:10.154Z,89.33
2019-06-27T05:39:10.129Z,88.81
2019-06-27T05:40:10.123Z,89.09
2019-06-27T05:41:10.103Z,89.38
2019-06-27T05:42:10.076Z,89.29
2019-06-27T05:43:10.055Z,89.38
2019-06-27T05:44:10.131Z,88.37
2019-06-27T05:45:10.031Z,88.52
2019-06-27T05:46:10.001Z,88.90
2019-06-27T05:47:09.987Z,88.52
2019-06-27T05:48:09.965Z,88.56
2019-06-27T05:49:09.951Z,88.76
2019-06-27T05:50:09.932Z,88.56
2019-06-27T05:51:09.911Z,88.56
2019-06-27T05:52:09.898Z,88.28
2019-06-27T05:53:09.959Z,88.09
2019-06-27T05:54:09.859Z,88.28
2019-06-27T05:55:09.847Z,87.80
2019-06-27T05:56:09.828Z,88.28
2019-06-27T05:57:09.804Z,87.55
2019-06-27T05:58:09.786Z,87.32
2019-06-27T05:59:09.767Z,87.23
2019-06-27T06:00:26.698Z,87.13
2019-06-27T06:01:09.731Z,87.03
2019-06-27T06:02:09.723Z,87.23
2019-06-27T06:03:09.696Z,87.80
2019-06-27T06:04:09.677Z,86.65
2019-06-27T06:05:09.658Z,87.61
2019-06-27T06:06:09.651Z,87.41
2019-06-27T06:07:09.625Z,87.99
2019-06-27T06:08:09.611Z,87.61
2019-06-27T06:09:09.588Z,87.99
2019-06-27T06:10:09.570Z,87.23
2019-06-27T06:11:09.554Z,87.41
2019-06-27T06:12:09.532Z,87.41
2019-06-27T06:13:09.516Z,87.32
2019-06-27T06:14:09.497Z,86.31
2019-06-27T06:15:09.475Z,86.17
2019-06-27T06:16:09.459Z,86.50
2019-06-27T06:17:09.448Z,86.12
2019-06-27T06:18:09.471Z,85.54
2019-06-27T06:19:09.407Z,85.60
2019-06-27T06:20:09.389Z,85.50
2019-06-27T06:21:09.371Z,86.02
2019-06-27T06:22:09.350Z,85.35
2019-06-27T06:23:09.337Z,86.12
2019-06-27T06:24:09.316Z,85.54
2019-06-27T06:25:09.299Z,85.54
2019-06-27T06:26:09.283Z,85.93
2019-06-27T06:27:09.269Z,85.69
2019-06-27T06:28:09.260Z,85.98
2019-06-27T06:29:09.227Z,86.60
2019-06-27T06:30:09.228Z,86.60
2019-06-27T06:31:09.196Z,87.17
2019-06-27T06:32:09.174Z,86.50
2019-06-27T06:33:09.162Z,86.02
2019-06-27T06:34:09.133Z,85.54
2019-06-27T06:35:09.115Z,84.30
2019-06-27T06:36:09.099Z,83.92
2019-06-27T06:37:09.078Z,84.78
2019-06-27T06:38:09.066Z,84.68
2019-06-27T06:39:09.042Z,84.49
2019-06-27T06:40:09.025Z,84.78
2019-06-27T06:41:09.007Z,85.54
2019-06-27T06:42:09.002Z,84.39
2019-06-27T06:43:08.982Z,84.49
2019-06-27T06:44:08.965Z,84.39
2019-06-27T06:45:08.935Z,84.78
2019-06-27T06:46:08.922Z,84.78
2019-06-27T06:47:08.899Z,85.16
2019-06-27T06:48:08.889Z,84.78
2019-06-27T06:49:08.867Z,84.01
2019-06-27T06:50:08.862Z,84.78
2019-06-27T06:51:08.840Z,84.78
2019-06-27T06:52:08.812Z,84.11
2019-06-27T06:53:08.797Z,83.82
2019-06-27T06:54:08.775Z,83.92
2019-06-27T06:55:08.757Z,84.01
2019-06-27T06:56:08.739Z,84.11
2019-06-27T06:57:08.721Z,84.34
2019-06-27T06:58:08.703Z,84.05
2019-06-27T06:59:08.685Z,83.48
2019-06-27T07:00:08.680Z,83.05
2019-06-27T07:01:08.659Z,83.15
2019-06-27T07:02:08.642Z,83.92
2019-06-27T07:03:08.613Z,83.34
2019-06-27T07:04:08.602Z,83.05
2019-06-27T07:05:08.586Z,83.76
2019-06-27T07:06:08.574Z,84.15
2019-06-27T07:07:08.609Z,81.95
2019-06-27T07:08:08.527Z,81.95
2019-06-27T07:09:08.507Z,81.37
2019-06-27T07:10:08.492Z,82.14
2019-06-27T07:11:08.469Z,81.60
2019-06-27T07:12:08.450Z,79.83
2019-06-27T07:13:08.435Z,81.08
2019-06-27T07:14:08.417Z,82.71
2019-06-27T07:15:08.410Z,81.85
2019-06-27T07:16:08.382Z,82.14
2019-06-27T07:17:08.363Z,82.42
2019-06-27T07:18:08.345Z,83.09
2019-06-27T07:19:08.378Z,82.62
2019-06-27T07:20:08.328Z,81.56
2019-06-27T07:21:08.293Z,81.46
2019-06-27T07:22:08.278Z,80.70
2019-06-27T07:23:08.256Z,80.55
2019-06-27T07:24:08.242Z,82.37
2019-06-27T07:25:08.225Z,80.35
2019-06-27T07:26:08.211Z,79.39
2019-06-27T07:27:08.189Z,80.45
2019-06-27T07:28:08.168Z,79.78
2019-06-27T07:29:08.153Z,78.92
2019-06-27T07:30:08.132Z,79.39
2019-06-27T07:31:17.275Z,78.82
2019-06-27T07:32:08.101Z,79.21
2019-06-27T07:33:10.326Z,78.92
2019-06-27T07:34:08.062Z,78.63
2019-06-27T07:35:08.047Z,77.76
2019-06-27T07:36:08.040Z,77.19
2019-06-27T07:37:08.011Z,77.38
2019-06-27T07:38:07.992Z,77.61
2019-06-27T07:39:07.973Z,77.33
2019-06-27T07:40:07.955Z,75.79
2019-06-27T07:41:07.993Z,74.73
2019-06-27T07:42:07.921Z,74.35
2019-06-27T07:43:08.018Z,75.40
2019-06-27T07:44:07.888Z,76.84
2019-06-27T07:45:07.869Z,76.07
2019-06-27T07:46:23.732Z,75.40
2019-06-27T07:47:07.842Z,75.79
2019-06-27T07:48:07.818Z,73.97
2019-06-27T07:49:07.799Z,74.16
2019-06-27T07:50:07.783Z,74.16
2019-06-27T07:51:07.765Z,74.35
2019-06-27T07:52:07.748Z,74.64
2019-06-27T07:53:07.731Z,74.54
2019-06-27T07:54:07.790Z,73.58
2019-06-27T07:55:07.693Z,72.95
2019-06-27T07:56:07.722Z,72.14
2019-06-27T07:57:07.665Z,72.49
2019-06-27T07:58:07.651Z,73.45
2019-06-27T07:59:07.630Z,74.02
2019-06-27T08:00:07.616Z,73.49
2019-06-27T08:01:07.591Z,73.10
2019-06-27T08:02:07.582Z,72.53
2019-06-27T08:03:07.571Z,73.00
2019-06-27T08:04:07.546Z,72.53
2019-06-27T08:05:07.528Z,73.20
2019-06-27T08:06:07.509Z,73.39
2019-06-27T08:07:07.488Z,73.00
2019-06-27T08:08:07.473Z,73.52
2019-06-27T08:09:07.454Z,72.95
2019-06-27T08:10:07.458Z,72.47
2019-06-27T08:11:07.421Z,72.95
2019-06-27T08:12:07.405Z,73.04
2019-06-27T08:13:07.391Z,72.12
2019-06-27T08:14:07.371Z,72.69
2019-06-27T08:15:07.353Z,72.99
2019-06-27T08:16:07.340Z,71.35
2019-06-27T08:17:07.315Z,71.25
2019-06-27T08:18:07.302Z,71.64
2019-06-27T08:19:07.288Z,70.01
2019-06-27T08:20:07.264Z,70.93
2019-06-27T08:21:07.251Z,71.89
2019-06-27T08:22:07.233Z,72.60
2019-06-27T08:23:07.223Z,72.31
2019-06-27T08:24:07.199Z,73.75
2019-06-27T08:25:07.182Z,71.48
2019-06-27T08:26:07.167Z,70.10
2019-06-27T08:27:07.147Z,70.49
2019-06-27T08:28:07.176Z,70.78
2019-06-27T08:29:07.118Z,70.97
2019-06-27T08:30:08.481Z,71.19
2019-06-27T08:31:07.082Z,70.43
2019-06-27T08:32:07.073Z,70.14
2019-06-27T08:33:07.050Z,71.61
2019-06-27T08:34:07.044Z,70.65
2019-06-27T08:35:07.026Z,70.94
2019-06-27T08:36:07.003Z,68.92
2019-06-27T08:37:06.979Z,69.50
2019-06-27T08:38:06.970Z,70.23
2019-06-27T08:39:06.944Z,69.95
2019-06-27T08:40:06.933Z,70.04
2019-06-27T08:41:06.912Z,70.81
2019-06-27T08:42:06.896Z,71.67
2019-06-27T08:43:06.891Z,73.02
2019-06-27T08:44:06.865Z,70.81
2019-06-27T08:45:06.852Z,70.65
2019-06-27T08:46:06.833Z,69.46
2019-06-27T08:47:06.817Z,68.98
2019-06-27T08:48:06.807Z,67.83
2019-06-27T08:49:06.783Z,68.70
2019-06-27T08:50:06.769Z,68.21
2019-06-27T08:51:06.750Z,69.12
2019-06-27T08:52:06.735Z,69.79
2019-06-27T08:53:06.719Z,68.35
2019-06-27T08:54:06.702Z,68.48
2019-06-27T08:55:06.728Z,66.71
2019-06-27T08:56:06.673Z,67.19
2019-06-27T08:57:06.689Z,66.61
2019-06-27T08:58:06.647Z,67.38
2019-06-27T08:59:06.627Z,67.00
2019-06-27T09:00:06.604Z,67.29
2019-06-27T09:01:06.587Z,67.13
2019-06-27T09:02:09.178Z,66.46
2019-06-27T09:03:06.556Z,65.20
2019-06-27T09:04:06.543Z,64.92
2019-06-27T09:05:06.526Z,65.37
2019-06-27T09:06:06.507Z,65.75
2019-06-27T09:07:06.492Z,67.13
2019-06-27T09:08:06.521Z,67.13
2019-06-27T09:09:06.463Z,67.42
2019-06-27T09:10:06.447Z,66.46
2019-06-27T09:11:06.428Z,68.22
2019-06-27T09:12:06.417Z,67.03
2019-06-27T09:13:06.399Z,67.42
2019-06-27T09:14:06.386Z,67.35
2019-06-27T09:15:06.366Z,66.39
2019-06-27T09:16:06.355Z,67.13
2019-06-27T09:17:06.334Z,67.55
2019-06-27T09:18:06.331Z,67.16
2019-06-27T09:19:06.301Z,67.16
2019-06-27T09:20:06.287Z,66.01
2019-06-27T09:21:06.276Z,64.56
2019-06-27T09:22:06.255Z,65.53
2019-06-27T09:23:06.244Z,64.66
2019-06-27T09:24:06.233Z,64.95
2019-06-27T09:25:06.209Z,64.56
2019-06-27T09:26:06.206Z,64.76
2019-06-27T09:27:06.177Z,64.76
2019-06-27T09:28:06.163Z,64.34
2019-06-27T09:29:06.143Z,65.72
2019-06-27T09:30:06.139Z,65.72
2019-06-27T09:31:06.113Z,64.86
2019-06-27T09:32:06.097Z,66.20
2019-06-27T09:33:06.090Z,64.66
2019-06-27T09:34:06.065Z,64.08
2019-06-27T09:35:06.059Z,65.17
2019-06-27T09:36:06.038Z,65.56
2019-06-27T09:37:06.025Z,64.69
2019-06-27T09:38:06.009Z,63.82
2019-06-27T09:39:05.986Z,63.06
2019-06-27T09:40:05.972Z,64.21
2019-06-27T09:41:05.959Z,64.79
2019-06-27T09:42:05.944Z,63.41
2019-06-27T09:43:05.934Z,66.04
2019-06-27T09:44:05.911Z,66.42
2019-06-27T09:45:05.900Z,65.66
2019-06-27T09:46:05.884Z,65.01
2019-06-27T09:47:05.936Z,64.53
2019-06-27T09:48:05.854Z,64.73
2019-06-27T09:49:05.862Z,64.82
2019-06-27T09:50:05.820Z,63.18
2019-06-27T09:51:05.806Z,63.47
2019-06-27T09:52:05.795Z,63.06
2019-06-27T09:53:05.777Z,63.34
2019-06-27T09:54:05.760Z,63.67
2019-06-27T09:55:05.741Z,62.80
2019-06-27T09:56:05.737Z,62.90
2019-06-27T09:57:05.717Z,62.60
2019-06-27T09:58:05.714Z,63.64
2019-06-27T09:59:05.698Z,63.44
2019-06-27T10:00:05.671Z,64.02
2019-06-27T10:01:06.340Z,63.64
2019-06-27T10:02:05.688Z,63.06
2019-06-27T10:03:05.627Z,63.64
2019-06-27T10:04:05.615Z,64.50
2019-06-27T10:05:05.592Z,62.70
2019-06-27T10:06:05.577Z,62.90
2019-06-27T10:07:05.562Z,62.73
2019-06-27T10:08:05.564Z,63.12
2019-06-27T10:09:05.539Z,63.89
2019-06-27T10:10:05.546Z,61.25
2019-06-27T10:11:05.500Z,62.22
2019-06-27T10:12:05.485Z,63.57
2019-06-27T10:13:05.472Z,63.57
2019-06-27T10:14:05.463Z,62.90
2019-06-27T10:15:05.440Z,64.63
2019-06-27T10:16:05.427Z,63.09
2019-06-27T10:17:05.412Z,62.80
2019-06-27T10:18:05.405Z,62.99
2019-06-27T10:19:05.381Z,62.32
2019-06-27T10:20:05.367Z,62.90
2019-06-27T10:21:05.364Z,63.09
2019-06-27T10:22:05.337Z,63.18
2019-06-27T10:23:05.320Z,62.99
2019-06-27T10:24:05.311Z,62.80
2019-06-27T10:25:05.297Z,63.09
2019-06-27T10:26:05.281Z,62.93
2019-06-27T10:27:05.258Z,62.86
2019-06-27T10:28:05.249Z,60.42
2019-06-27T10:29:05.228Z,59.65
2019-06-27T10:30:05.219Z,61.80
2019-06-27T10:31:05.205Z,60.06
2019-06-27T10:32:05.184Z,58.52
2019-06-27T10:33:05.172Z,61.80
2019-06-27T10:34:05.165Z,61.03
2019-06-27T10:35:05.159Z,61.41
2019-06-27T10:36:05.125Z,59.90
2019-06-27T10:37:05.111Z,60.48
2019-06-27T10:38:05.096Z,62.02
2019-06-27T10:39:05.083Z,60.86
2019-06-27T10:40:05.074Z,60.55
2019-06-27T10:41:05.060Z,60.55
2019-06-27T10:42:05.042Z,61.80
2019-06-27T10:43:05.118Z,60.64
2019-06-27T10:44:05.060Z,60.83
2019-06-27T10:45:04.991Z,60.00
2019-06-27T10:46:04.979Z,60.64
2019-06-27T10:47:04.964Z,60.06
2019-06-27T10:48:04.951Z,58.81
2019-06-27T10:49:04.936Z,59.39
2019-06-27T10:50:04.930Z,59.68
2019-06-27T10:51:04.906Z,59.87
2019-06-27T10:52:04.894Z,59.78
2019-06-27T10:53:04.881Z,58.81
2019-06-27T10:54:04.867Z,59.68
2019-06-27T10:55:04.918Z,59.87
2019-06-27T10:56:04.901Z,60.06
2019-06-27T10:57:04.834Z,59.58
2019-06-27T10:58:04.807Z,59.10
2019-06-27T10:59:04.815Z,60.06
2019-06-27T11:00:04.886Z,61.22
2019-06-27T11:01:04.761Z,59.58
2019-06-27T11:02:04.747Z,59.97
2019-06-27T11:03:15.076Z,59.48
2019-06-27T11:04:04.727Z,59.39
2019-06-27T11:05:04.703Z,59.58
2019-06-27T11:06:04.682Z,60.55
2019-06-27T11:07:04.671Z,61.35
2019-06-27T11:08:04.664Z,60.77
2019-06-27T11:09:04.639Z,59.39
2019-06-27T11:10:04.626Z,60.86
2019-06-27T11:11:04.609Z,60.19
2019-06-27T11:12:04.625Z,58.94
2019-06-27T11:13:04.587Z,58.84
2019-06-27T11:14:04.573Z,60.68
2019-06-27T11:15:04.566Z,60.03
2019-06-27T11:16:04.639Z,59.16
2019-06-27T11:17:04.541Z,58.77
2019-06-27T11:18:04.525Z,58.75
2019-06-27T11:19:04.495Z,59.45
2019-06-27T11:20:04.479Z,58.97
2019-06-27T11:21:04.468Z,57.81
2019-06-27T11:22:04.457Z,57.81
2019-06-27T11:23:04.438Z,57.62
2019-06-27T11:24:04.424Z,59.35
2019-06-27T11:25:04.424Z,57.81
2019-06-27T11:26:04.392Z,59.25
2019-06-27T11:27:04.387Z,57.62
2019-06-27T11:28:04.363Z,58.87
2019-06-27T11:29:04.347Z,57.87
2019-06-27T11:30:04.334Z,58.97
2019-06-27T11:31:04.321Z,59.45
2019-06-27T11:32:04.310Z,58.75
2019-06-27T11:33:04.294Z,58.77
2019-06-27T11:34:04.281Z,59.16
2019-06-27T11:35:04.262Z,59.16
2019-06-27T11:36:04.254Z,59.55
2019-06-27T11:37:04.234Z,59.00
2019-06-27T11:38:04.229Z,59.28
2019-06-27T11:39:04.202Z,57.93
2019-06-27T11:40:04.190Z,57.16
2019-06-27T11:41:04.176Z,57.48
2019-06-27T11:42:04.157Z,59.02
2019-06-27T11:43:04.151Z,58.35
2019-06-27T11:44:04.137Z,57.45
2019-06-27T11:45:04.115Z,57.64
2019-06-27T11:46:04.114Z,58.70
2019-06-27T11:47:04.088Z,57.84
2019-06-27T11:48:04.072Z,58.03
2019-06-27T11:49:04.062Z,58.32
2019-06-27T11:50:04.046Z,58.03
2019-06-27T11:51:04.034Z,57.38
2019-06-27T11:52:04.019Z,57.77
2019-06-27T11:53:04.002Z,59.12
2019-06-27T11:54:03.998Z,58.35
2019-06-27T11:55:03.994Z,59.02
2019-06-27T11:56:03.960Z,58.06
2019-06-27T11:57:03.944Z,59.60
2019-06-27T11:58:03.955Z,57.96
2019-06-27T11:59:03.915Z,57.96
2019-06-27T12:00:03.908Z,56.68
2019-06-27T12:01:03.899Z,58.12
2019-06-27T12:02:03.881Z,58.03
2019-06-27T12:03:03.860Z,58.32
2019-06-27T12:04:03.851Z,57.16
2019-06-27T12:05:03.867Z,58.45
2019-06-27T12:06:03.819Z,58.45
2019-06-27T12:07:03.809Z,57.96
2019-06-27T12:08:03.794Z,57.57
2019-06-27T12:09:03.786Z,57.74
2019-06-27T12:10:03.771Z,58.03
2019-06-27T12:11:03.746Z,58.03
2019-06-27T12:12:03.732Z,58.42
2019-06-27T12:13:03.752Z,58.45
2019-06-27T12:14:03.719Z,58.73
2019-06-27T12:15:03.693Z,58.67
2019-06-27T12:16:03.682Z,57.09
2019-06-27T12:17:03.662Z,56.71
2019-06-27T12:18:03.655Z,57.77
2019-06-27T12:19:03.634Z,57.48
2019-06-27T12:20:03.619Z,56.99
2019-06-27T12:21:06.240Z,58.83
2019-06-27T12:22:03.589Z,56.99
2019-06-27T12:23:03.576Z,56.99
2019-06-27T12:24:03.566Z,56.90
2019-06-27T12:25:03.629Z,57.38
2019-06-27T12:26:03.738Z,58.67
2019-06-27T12:27:03.524Z,57.24
2019-06-27T12:28:03.516Z,56.83
2019-06-27T12:29:03.498Z,56.63
2019-06-27T12:30:03.649Z,56.22
2019-06-27T12:31:19.246Z,57.57
2019-06-27T12:32:03.448Z,58.95
2019-06-27T12:33:03.434Z,57.38
2019-06-27T12:34:07.283Z,58.47
2019-06-27T12:35:03.417Z,58.09
2019-06-27T12:36:03.401Z,60.11
2019-06-27T12:37:03.383Z,57.92
2019-06-27T12:38:03.367Z,56.67
2019-06-27T12:39:03.365Z,57.41
2019-06-27T12:40:03.338Z,57.12
2019-06-27T12:41:03.323Z,57.31
2019-06-27T12:42:03.311Z,57.51
2019-06-27T12:43:03.296Z,57.54
2019-06-27T12:44:03.294Z,56.45
2019-06-27T12:45:03.271Z,56.93
2019-06-27T12:46:03.801Z,57.34
2019-06-27T12:47:03.391Z,57.51
2019-06-27T12:48:07.248Z,58.09
2019-06-27T12:49:03.229Z,57.79
2019-06-27T12:50:03.493Z,58.40
2019-06-27T12:51:03.182Z,57.92
2019-06-27T12:52:03.181Z,56.37